sensor_id;sensor_type;location;lat;lon;timestamp;temperature;humidity
12889;DHT22;56848;49.896;11.424;2022-10-14T04:00:53;10.90;99.90
12889;DHT22;56848;49.896;11.424;2022-10-14T04:03:19;10.80;99.90
12889;DHT22;56848;49.896;11.424;2022-10-14T04:05:44;10.80;99.90
12889;DHT22;56848;49.896;11.424;2022-10-14T04:08:10;10.90;99.90
12889;DHT22;56848;49.896;11.424;2022-10-14T04:10:36;10.80;99.90
12889;DHT22;56848;49.896;11.424;2022-10-14T04:13:01;10.80;99.90
12889;DHT22;56848;49.896;11.424;2022-10-14T04:15:27;10.80;99.90
12889;DHT22;56848;49.896;11.424;2022-10-14T04:17:52;10.80;99.90
12889;DHT22;56848;49.896;11.424;2022-10-14T04:20:18;10.70;99.90
12889;DHT22;56848;49.896;11.424;2022-10-14T04:22:44;10.60;99.90
12889;DHT22;56848;49.896;11.424;2022-10-14T04:25:10;10.60;99.90
12889;DHT22;56848;49.896;11.424;2022-10-14T04:27:35;10.50;99.90
12889;DHT22;56848;49.896;11.424;2022-10-14T04:30:01;10.60;99.90
12889;DHT22;56848;49.896;11.424;2022-10-14T04:32:27;10.50;99.90
12889;DHT22;56848;49.896;11.424;2022-10-14T04:34:52;10.50;99.90
12889;DHT22;56848;49.896;11.424;2022-10-14T04:37:19;10.50;99.90
12889;DHT22;56848;49.896;11.424;2022-10-14T04:39:45;10.50;99.90
12889;DHT22;56848;49.896;11.424;2022-10-14T04:42:10;10.50;99.90
12889;DHT22;56848;49.896;11.424;2022-10-14T04:44:36;10.60;99.90
12889;DHT22;56848;49.896;11.424;2022-10-14T04:47:01;10.60;99.90
12889;DHT22;56848;49.896;11.424;2022-10-14T04:49:27;10.60;99.90
12889;DHT22;56848;49.896;11.424;2022-10-14T04:51:52;10.60;99.90
12889;DHT22;56848;49.896;11.424;2022-10-14T04:54:18;10.60;99.90
12889;DHT22;56848;49.896;11.424;2022-10-14T04:56:43;10.60;99.90
12889;DHT22;56848;49.896;11.424;2022-10-14T04:59:10;10.60;99.90
12889;DHT22;56848;49.896;11.424;2022-10-14T05:01:35;10.70;99.90
12889;DHT22;56848;49.896;11.424;2022-10-14T05:04:01;10.60;99.90
12889;DHT22;56848;49.896;11.424;2022-10-14T05:06:26;10.70;99.90
12889;DHT22;56848;49.896;11.424;2022-10-14T05:08:52;10.70;99.90
12889;DHT22;56848;49.896;11.424;2022-10-14T05:11:17;10.70;99.90
12889;DHT22;56848;49.896;11.424;2022-10-14T05:13:43;10.70;99.90
12889;DHT22;56848;49.896;11.424;2022-10-14T05:16:09;10.70;99.90
12889;DHT22;56848;49.896;11.424;2022-10-14T05:18:35;10.80;99.90
12889;DHT22;56848;49.896;11.424;2022-10-14T05:21:01;10.80;99.90
12889;DHT22;56848;49.896;11.424;2022-10-14T05:23:27;10.80;99.90
12889;DHT22;56848;49.896;11.424;2022-10-14T05:25:52;10.80;99.90
12889;DHT22;56848;49.896;11.424;2022-10-14T05:28:18;10.80;99.90
12889;DHT22;56848;49.896;11.424;2022-10-14T05:30:44;10.80;99.90
12889;DHT22;56848;49.896;11.424;2022-10-14T05:33:09;10.80;99.90
12889;DHT22;56848;49.896;11.424;2022-10-14T05:35:35;10.80;99.90
12889;DHT22;56848;49.896;11.424;2022-10-14T05:38:01;10.80;99.90
12889;DHT22;56848;49.896;11.424;2022-10-14T05:40:27;10.80;99.90
12889;DHT22;56848;49.896;11.424;2022-10-14T05:42:53;10.80;99.90
12889;DHT22;56848;49.896;11.424;2022-10-14T05:45:18;10.80;99.90
12889;DHT22;56848;49.896;11.424;2022-10-14T05:47:44;10.80;99.90
12889;DHT22;56848;49.896;11.424;2022-10-14T05:50:10;10.80;99.90
12889;DHT22;56848;49.896;11.424;2022-10-14T05:52:37;10.80;99.90
12889;DHT22;56848;49.896;11.424;2022-10-14T05:55:04;10.80;99.90
12889;DHT22;56848;49.896;11.424;2022-10-14T05:57:30;10.80;99.90
12889;DHT22;56848;49.896;11.424;2022-10-14T05:59:58;10.80;99.90
12889;DHT22;56848;49.896;11.424;2022-10-14T06:02:24;10.80;99.90
12889;DHT22;56848;49.896;11.424;2022-10-14T06:04:49;10.80;99.90
12889;DHT22;56848;49.896;11.424;2022-10-14T06:07:15;10.90;99.90
12889;DHT22;56848;49.896;11.424;2022-10-14T06:09:41;10.70;99.90
12889;DHT22;56848;49.896;11.424;2022-10-14T06:12:07;10.90;99.90
12889;DHT22;56848;49.896;11.424;2022-10-14T06:14:32;10.80;99.90
12889;DHT22;56848;49.896;11.424;2022-10-14T06:16:58;10.90;99.90
12889;DHT22;56848;49.896;11.424;2022-10-14T06:19:24;10.90;99.90
12889;DHT22;56848;49.896;11.424;2022-10-14T06:21:49;11.00;99.90
12889;DHT22;56848;49.896;11.424;2022-10-14T06:24:15;11.00;99.90
12889;DHT22;56848;49.896;11.424;2022-10-14T06:26:41;11.00;99.90
12889;DHT22;56848;49.896;11.424;2022-10-14T06:29:06;11.00;99.90
12889;DHT22;56848;49.896;11.424;2022-10-14T06:31:32;11.00;99.90
12889;DHT22;56848;49.896;11.424;2022-10-14T06:33:58;11.00;99.90
12889;DHT22;56848;49.896;11.424;2022-10-14T06:36:23;11.00;99.90
12889;DHT22;56848;49.896;11.424;2022-10-14T06:38:49;11.10;99.90
12889;DHT22;56848;49.896;11.424;2022-10-14T06:41:14;11.10;99.90
12889;DHT22;56848;49.896;11.424;2022-10-14T06:43:40;11.20;99.90
12889;DHT22;56848;49.896;11.424;2022-10-14T06:46:06;11.20;99.90
12889;DHT22;56848;49.896;11.424;2022-10-14T06:48:32;11.20;99.90
12889;DHT22;56848;49.896;11.424;2022-10-14T06:50:58;11.20;99.90
12889;DHT22;56848;49.896;11.424;2022-10-14T06:53:25;11.30;99.90
12889;DHT22;56848;49.896;11.424;2022-10-14T06:55:57;11.20;99.90
12889;DHT22;56848;49.896;11.424;2022-10-14T06:58:22;11.20;99.90
12889;DHT22;56848;49.896;11.424;2022-10-14T07:00:48;11.30;99.90
12889;DHT22;56848;49.896;11.424;2022-10-14T07:03:14;11.20;99.90
12889;DHT22;56848;49.896;11.424;2022-10-14T07:05:39;11.30;99.90
12889;DHT22;56848;49.896;11.424;2022-10-14T07:08:05;11.40;99.90
12889;DHT22;56848;49.896;11.424;2022-10-14T07:10:31;11.40;99.90
12889;DHT22;56848;49.896;11.424;2022-10-14T07:12:56;11.50;99.90
12889;DHT22;56848;49.896;11.424;2022-10-14T07:15:22;11.60;99.90
12889;DHT22;56848;49.896;11.424;2022-10-14T07:17:47;11.70;99.90
12889;DHT22;56848;49.896;11.424;2022-10-14T07:20:13;11.80;99.90
12889;DHT22;56848;49.896;11.424;2022-10-14T07:22:39;11.80;99.90
12889;DHT22;56848;49.896;11.424;2022-10-14T07:25:05;11.90;99.90
12889;DHT22;56848;49.896;11.424;2022-10-14T07:27:31;12.00;99.90
12889;DHT22;56848;49.896;11.424;2022-10-14T07:29:56;11.90;99.90
12889;DHT22;56848;49.896;11.424;2022-10-14T07:32:22;12.00;99.90
12889;DHT22;56848;49.896;11.424;2022-10-14T07:34:47;12.00;99.90
12889;DHT22;56848;49.896;11.424;2022-10-14T07:37:13;11.90;99.90
12889;DHT22;56848;49.896;11.424;2022-10-14T07:39:38;11.90;99.90
12889;DHT22;56848;49.896;11.424;2022-10-14T07:42:04;11.90;99.90
12889;DHT22;56848;49.896;11.424;2022-10-14T07:44:30;11.80;99.90
12889;DHT22;56848;49.896;11.424;2022-10-14T07:46:55;11.90;99.90
12889;DHT22;56848;49.896;11.424;2022-10-14T07:49:23;12.00;99.90
12889;DHT22;56848;49.896;11.424;2022-10-14T07:51:48;11.90;99.90
12889;DHT22;56848;49.896;11.424;2022-10-14T07:54:23;11.90;99.90
12889;DHT22;56848;49.896;11.424;2022-10-14T07:56:49;11.90;99.90
12889;DHT22;56848;49.896;11.424;2022-10-14T07:59:19;12.00;99.90
12889;DHT22;56848;49.896;11.424;2022-10-14T08:01:48;12.00;99.90
12889;DHT22;56848;49.896;11.424;2022-10-14T08:04:15;12.10;99.90
12889;DHT22;56848;49.896;11.424;2022-10-14T08:06:40;12.10;99.90
12889;DHT22;56848;49.896;11.424;2022-10-14T08:09:08;12.00;99.90
12889;DHT22;56848;49.896;11.424;2022-10-14T08:11:34;12.10;99.90
12889;DHT22;56848;49.896;11.424;2022-10-14T08:14:00;12.10;99.90
12889;DHT22;56848;49.896;11.424;2022-10-14T08:16:28;12.10;99.90
12889;DHT22;56848;49.896;11.424;2022-10-14T08:18:58;12.10;99.90
12889;DHT22;56848;49.896;11.424;2022-10-14T08:21:24;12.30;99.90
12889;DHT22;56848;49.896;11.424;2022-10-14T08:23:50;12.40;99.90
12889;DHT22;56848;49.896;11.424;2022-10-14T08:26:36;12.40;99.90
12889;DHT22;56848;49.896;11.424;2022-10-14T08:29:05;12.40;99.90
12889;DHT22;56848;49.896;11.424;2022-10-14T08:31:31;12.50;99.90
12889;DHT22;56848;49.896;11.424;2022-10-14T08:33:58;12.50;99.90
12889;DHT22;56848;49.896;11.424;2022-10-14T08:36:23;12.30;99.90
12889;DHT22;56848;49.896;11.424;2022-10-14T08:38:51;12.30;99.90
12889;DHT22;56848;49.896;11.424;2022-10-14T08:41:53;12.30;99.90
12889;DHT22;56848;49.896;11.424;2022-10-14T08:44:44;12.40;99.90
12889;DHT22;56848;49.896;11.424;2022-10-14T08:47:14;12.40;99.90
12889;DHT22;56848;49.896;11.424;2022-10-14T08:52:18;12.40;99.90
12889;DHT22;56848;49.896;11.424;2022-10-14T08:54:50;12.40;99.90
12889;DHT22;56848;49.896;11.424;2022-10-14T08:57:21;12.40;99.90
12889;DHT22;56848;49.896;11.424;2022-10-14T08:59:49;12.60;99.90
12889;DHT22;56848;49.896;11.424;2022-10-14T09:04:40;12.70;99.90
12889;DHT22;56848;49.896;11.424;2022-10-14T09:07:06;12.80;99.90
12889;DHT22;56848;49.896;11.424;2022-10-14T09:09:43;12.80;99.90
12889;DHT22;56848;49.896;11.424;2022-10-14T09:12:13;12.90;99.90
12889;DHT22;56848;49.896;11.424;2022-10-14T09:14:48;12.90;99.90
12889;DHT22;56848;49.896;11.424;2022-10-14T09:17:24;13.00;99.90
12889;DHT22;56848;49.896;11.424;2022-10-14T09:22:33;13.10;99.90
12889;DHT22;56848;49.896;11.424;2022-10-14T09:24:59;13.30;99.90
12889;DHT22;56848;49.896;11.424;2022-10-14T09:27:27;13.40;99.90
12889;DHT22;56848;49.896;11.424;2022-10-14T09:29:59;13.50;99.90
12889;DHT22;56848;49.896;11.424;2022-10-14T09:35:40;13.70;99.90
12889;DHT22;56848;49.896;11.424;2022-10-14T09:38:06;13.80;99.90
12889;DHT22;56848;49.896;11.424;2022-10-14T09:40:37;13.80;99.90
12889;DHT22;56848;49.896;11.424;2022-10-14T09:46:01;13.80;99.90
12889;DHT22;56848;49.896;11.424;2022-10-14T09:48:37;13.90;99.90
12889;DHT22;56848;49.896;11.424;2022-10-14T09:51:25;14.00;99.90
12889;DHT22;56848;49.896;11.424;2022-10-14T09:54:03;14.00;99.90
12889;DHT22;56848;49.896;11.424;2022-10-14T09:56:36;14.10;99.90
12889;DHT22;56848;49.896;11.424;2022-10-14T09:59:03;14.20;99.90
12889;DHT22;56848;49.896;11.424;2022-10-14T10:01:36;14.30;99.90
12889;DHT22;56848;49.896;11.424;2022-10-14T10:04:34;14.30;99.90
12889;DHT22;56848;49.896;11.424;2022-10-14T17:27:42;14.50;99.90
12889;DHT22;56848;49.896;11.424;2022-10-14T17:30:08;13.50;99.90
12889;DHT22;56848;49.896;11.424;2022-10-14T17:32:34;13.40;99.90
12889;DHT22;56848;49.896;11.424;2022-10-14T17:34:59;13.40;99.90
12889;DHT22;56848;49.896;11.424;2022-10-14T17:37:25;13.40;99.90
12889;DHT22;56848;49.896;11.424;2022-10-14T17:39:50;13.40;99.90
12889;DHT22;56848;49.896;11.424;2022-10-14T17:42:16;13.30;99.90
12889;DHT22;56848;49.896;11.424;2022-10-14T17:44:41;13.20;99.90
12889;DHT22;56848;49.896;11.424;2022-10-14T17:47:07;13.30;99.90
12889;DHT22;56848;49.896;11.424;2022-10-14T17:49:32;13.30;99.90
12889;DHT22;56848;49.896;11.424;2022-10-14T17:51:58;13.20;99.90
12889;DHT22;56848;49.896;11.424;2022-10-14T17:54:29;13.20;99.90
12889;DHT22;56848;49.896;11.424;2022-10-14T17:56:55;13.20;99.90
12889;DHT22;56848;49.896;11.424;2022-10-14T17:59:20;13.20;99.90
12889;DHT22;56848;49.896;11.424;2022-10-14T18:01:46;13.20;99.90
12889;DHT22;56848;49.896;11.424;2022-10-14T18:04:12;13.30;99.90
12889;DHT22;56848;49.896;11.424;2022-10-14T18:06:38;13.30;99.90
12889;DHT22;56848;49.896;11.424;2022-10-14T18:09:06;13.30;99.90
12889;DHT22;56848;49.896;11.424;2022-10-14T18:11:33;13.30;99.90
12889;DHT22;56848;49.896;11.424;2022-10-14T18:14:03;13.30;99.90
12889;DHT22;56848;49.896;11.424;2022-10-14T18:16:33;13.30;99.90
12889;DHT22;56848;49.896;11.424;2022-10-14T18:19:01;13.30;99.90
12889;DHT22;56848;49.896;11.424;2022-10-14T18:21:28;13.30;99.90
12889;DHT22;56848;49.896;11.424;2022-10-14T18:23:53;13.20;99.90
12889;DHT22;56848;49.896;11.424;2022-10-14T18:26:21;13.20;99.90
12889;DHT22;56848;49.896;11.424;2022-10-14T18:28:49;13.30;99.90
12889;DHT22;56848;49.896;11.424;2022-10-14T18:31:21;13.20;99.90
12889;DHT22;56848;49.896;11.424;2022-10-14T18:33:47;13.30;99.90
12889;DHT22;56848;49.896;11.424;2022-10-14T18:36:16;13.20;99.90
12889;DHT22;56848;49.896;11.424;2022-10-14T18:38:51;13.30;99.90
12889;DHT22;56848;49.896;11.424;2022-10-14T18:41:17;13.30;99.90
12889;DHT22;56848;49.896;11.424;2022-10-14T18:43:43;13.20;99.90
12889;DHT22;56848;49.896;11.424;2022-10-14T18:46:11;13.20;99.90
12889;DHT22;56848;49.896;11.424;2022-10-14T18:48:49;13.30;99.90
12889;DHT22;56848;49.896;11.424;2022-10-14T18:51:16;13.40;99.90
12889;DHT22;56848;49.896;11.424;2022-10-14T18:53:44;13.30;99.90
12889;DHT22;56848;49.896;11.424;2022-10-14T18:56:16;13.30;99.90
12889;DHT22;56848;49.896;11.424;2022-10-14T18:58:45;13.30;99.90
12889;DHT22;56848;49.896;11.424;2022-10-14T19:01:11;13.20;99.90
12889;DHT22;56848;49.896;11.424;2022-10-14T19:03:38;13.20;99.90
12889;DHT22;56848;49.896;11.424;2022-10-14T19:06:05;13.20;99.90
12889;DHT22;56848;49.896;11.424;2022-10-14T19:08:32;13.20;99.90
12889;DHT22;56848;49.896;11.424;2022-10-14T19:11:02;13.10;99.90
12889;DHT22;56848;49.896;11.424;2022-10-14T19:13:28;13.10;99.90
12889;DHT22;56848;49.896;11.424;2022-10-14T19:16:03;13.10;99.90
12889;DHT22;56848;49.896;11.424;2022-10-14T19:18:29;13.00;99.90
12889;DHT22;56848;49.896;11.424;2022-10-14T19:21:07;13.00;99.90
12889;DHT22;56848;49.896;11.424;2022-10-14T19:23:35;12.90;99.90
12889;DHT22;56848;49.896;11.424;2022-10-14T19:26:13;12.90;99.90
12889;DHT22;56848;49.896;11.424;2022-10-14T19:28:39;12.90;99.90
12889;DHT22;56848;49.896;11.424;2022-10-14T19:31:16;13.00;99.90
12889;DHT22;56848;49.896;11.424;2022-10-14T19:33:43;12.90;99.90
12889;DHT22;56848;49.896;11.424;2022-10-14T19:36:11;12.90;99.90
12889;DHT22;56848;49.896;11.424;2022-10-14T19:38:37;12.90;99.90
12889;DHT22;56848;49.896;11.424;2022-10-14T19:41:05;12.90;99.90
12889;DHT22;56848;49.896;11.424;2022-10-14T19:43:31;12.90;99.90
12889;DHT22;56848;49.896;11.424;2022-10-14T19:45:57;12.90;99.90
12889;DHT22;56848;49.896;11.424;2022-10-14T19:48:24;12.90;99.90
12889;DHT22;56848;49.896;11.424;2022-10-14T19:50:49;12.90;99.90
12889;DHT22;56848;49.896;11.424;2022-10-14T19:53:15;12.90;99.90
12889;DHT22;56848;49.896;11.424;2022-10-14T19:55:41;12.90;99.90
12889;DHT22;56848;49.896;11.424;2022-10-14T19:58:06;12.90;99.90
12889;DHT22;56848;49.896;11.424;2022-10-14T20:00:32;12.90;99.90
12889;DHT22;56848;49.896;11.424;2022-10-14T20:02:59;12.80;99.90
12889;DHT22;56848;49.896;11.424;2022-10-14T20:05:24;12.90;99.90
12889;DHT22;56848;49.896;11.424;2022-10-14T20:07:51;12.80;99.90
12889;DHT22;56848;49.896;11.424;2022-10-14T20:10:18;12.90;99.90
12889;DHT22;56848;49.896;11.424;2022-10-14T20:12:44;12.90;99.90
12889;DHT22;56848;49.896;11.424;2022-10-14T20:15:10;12.80;99.90
12889;DHT22;56848;49.896;11.424;2022-10-14T20:17:35;12.90;99.90
12889;DHT22;56848;49.896;11.424;2022-10-14T20:20:01;12.80;99.90
12889;DHT22;56848;49.896;11.424;2022-10-14T20:22:27;12.80;99.90
12889;DHT22;56848;49.896;11.424;2022-10-14T20:24:52;12.80;99.90
12889;DHT22;56848;49.896;11.424;2022-10-14T20:27:18;12.80;99.90
12889;DHT22;56848;49.896;11.424;2022-10-14T20:29:46;12.70;99.90
12889;DHT22;56848;49.896;11.424;2022-10-14T20:32:12;12.80;99.90
12889;DHT22;56848;49.896;11.424;2022-10-14T20:34:37;12.70;99.90
12889;DHT22;56848;49.896;11.424;2022-10-14T20:37:03;12.80;99.90
12889;DHT22;56848;49.896;11.424;2022-10-14T20:39:29;12.80;99.90
12889;DHT22;56848;49.896;11.424;2022-10-14T20:41:54;12.80;99.90
12889;DHT22;56848;49.896;11.424;2022-10-14T20:44:20;12.80;99.90
12889;DHT22;56848;49.896;11.424;2022-10-14T20:46:46;12.70;99.90
12889;DHT22;56848;49.896;11.424;2022-10-14T20:49:12;12.70;99.90
12889;DHT22;56848;49.896;11.424;2022-10-14T20:51:38;12.80;99.90
12889;DHT22;56848;49.896;11.424;2022-10-14T20:54:03;12.80;99.90
12889;DHT22;56848;49.896;11.424;2022-10-14T20:56:30;12.80;99.90
12889;DHT22;56848;49.896;11.424;2022-10-14T20:58:57;12.80;99.90
12889;DHT22;56848;49.896;11.424;2022-10-14T21:01:24;12.80;99.90
12889;DHT22;56848;49.896;11.424;2022-10-14T21:03:50;12.80;99.90
12889;DHT22;56848;49.896;11.424;2022-10-14T21:06:18;12.90;99.90
12889;DHT22;56848;49.896;11.424;2022-10-14T21:08:45;12.90;99.90
